createdAt,value
2019-03-13T00:01:45.330Z,93.30
2019-03-13T00:04:16.201Z,93.30
2019-03-13T00:06:47.604Z,93.10
2019-03-13T00:09:16.575Z,93.30
2019-03-13T00:11:45.465Z,93.30
2019-03-13T00:14:15.487Z,93.30
2019-03-13T00:16:44.400Z,93.20
2019-03-13T00:19:15.499Z,93.30
2019-03-13T00:21:44.507Z,93.40
2019-03-13T00:24:13.502Z,93.30
2019-03-13T00:26:43.521Z,93.30
2019-03-13T00:29:12.510Z,93.30
2019-03-13T00:31:42.608Z,93.40
2019-03-13T00:34:11.623Z,93.40
2019-03-13T00:36:40.612Z,93.40
2019-03-13T00:39:13.086Z,93.30
2019-03-13T00:41:42.079Z,93.30
2019-03-13T00:44:11.074Z,93.40
2019-03-13T00:46:40.170Z,93.50
2019-03-13T00:49:09.157Z,93.20
2019-03-13T00:51:38.150Z,93.40
2019-03-13T00:54:08.686Z,93.50
2019-03-13T00:56:37.676Z,93.50
2019-03-13T00:59:06.692Z,93.40
2019-03-13T01:01:52.554Z,93.50
2019-03-13T01:04:24.107Z,93.50
2019-03-13T01:06:55.559Z,93.50
2019-03-13T01:09:27.107Z,93.60
2019-03-13T01:11:56.102Z,93.40
2019-03-13T01:14:26.117Z,93.40
2019-03-13T01:16:57.541Z,93.50
2019-03-13T01:19:25.738Z,93.60
2019-03-13T01:21:55.742Z,93.50
2019-03-13T01:24:27.203Z,93.40
2019-03-13T01:26:56.195Z,93.30
2019-03-13T01:29:25.191Z,93.40
2019-03-13T01:32:12.322Z,93.80
2019-03-13T01:34:45.214Z,93.40
2019-03-13T01:37:14.283Z,93.40
2019-03-13T01:39:43.298Z,93.40
2019-03-13T01:42:14.218Z,93.40
2019-03-13T01:44:44.131Z,93.50
2019-03-13T01:47:13.123Z,93.40
2019-03-13T01:49:42.116Z,93.40
2019-03-13T01:52:13.586Z,93.50
2019-03-13T01:54:44.925Z,93.40
2019-03-13T01:57:16.361Z,93.30
2019-03-13T01:59:45.255Z,93.40
2019-03-13T02:02:14.247Z,93.50
2019-03-13T02:04:43.345Z,93.50
2019-03-13T02:07:13.258Z,93.40
2019-03-13T02:09:42.274Z,93.50
2019-03-13T02:12:11.238Z,93.50
2019-03-13T02:14:40.127Z,93.50
2019-03-13T02:17:09.119Z,93.50
2019-03-13T02:19:38.111Z,93.50
2019-03-13T02:22:07.105Z,93.70
2019-03-13T02:24:38.780Z,93.90
2019-03-13T02:27:10.222Z,93.80
2019-03-13T02:29:39.200Z,93.70
2019-03-13T02:32:08.223Z,93.70
2019-03-13T02:34:37.188Z,93.90
2019-03-13T02:37:06.179Z,94.20
2019-03-13T02:39:36.201Z,94.20
2019-03-13T02:42:05.190Z,94.20
2019-03-13T02:44:34.180Z,94.30
2019-03-13T02:47:05.662Z,94.20
2019-03-13T02:49:34.622Z,94.10
2019-03-13T02:52:06.027Z,94.10
2019-03-13T02:54:39.083Z,94.10
2019-03-13T02:57:08.051Z,94.30
2019-03-13T02:59:38.068Z,94.20
2019-03-13T03:02:12.394Z,94.10
2019-03-13T03:04:41.479Z,94.00
2019-03-13T03:07:12.808Z,94.10
2019-03-13T03:09:45.710Z,94.10
2019-03-13T03:12:14.706Z,93.90
2019-03-13T03:15:01.815Z,94.00
2019-03-13T03:17:30.812Z,94.10
2019-03-13T03:20:00.693Z,94.20
2019-03-13T03:22:29.719Z,94.30
2019-03-13T03:24:58.713Z,94.20
2019-03-13T03:27:27.600Z,94.20
2019-03-13T03:29:56.384Z,94.20
2019-03-13T03:32:25.273Z,94.20
2019-03-13T03:34:56.352Z,94.10
2019-03-13T03:37:25.433Z,94.10
2019-03-13T03:39:54.403Z,94.20
2019-03-13T03:42:23.390Z,94.10
2019-03-13T03:44:54.961Z,94.20
2019-03-13T03:47:29.363Z,94.00
2019-03-13T03:50:12.098Z,94.10
2019-03-13T03:52:41.084Z,94.20
2019-03-13T03:55:12.023Z,94.00
2019-03-13T03:57:47.021Z,94.00
2019-03-13T04:00:20.825Z,94.00
2019-03-13T04:02:49.946Z,94.10
2019-03-13T04:05:18.869Z,94.00
2019-03-13T04:07:47.824Z,93.90
2019-03-13T04:10:22.980Z,93.90
2019-03-13T04:12:55.334Z,94.00
2019-03-13T04:15:24.328Z,94.10
2019-03-13T04:17:53.225Z,94.00
2019-03-13T04:20:24.368Z,93.90
2019-03-13T04:22:53.364Z,94.00
2019-03-13T04:25:29.008Z,93.90
2019-03-13T04:27:58.882Z,93.80
2019-03-13T04:30:27.802Z,93.70
2019-03-13T04:32:56.798Z,93.60
2019-03-13T04:35:26.809Z,93.60
2019-03-13T04:37:55.803Z,93.60
2019-03-13T04:40:28.256Z,93.60
2019-03-13T04:42:57.370Z,93.60
2019-03-13T04:45:26.262Z,93.40
2019-03-13T04:47:55.256Z,93.40
2019-03-13T04:50:28.145Z,93.20
2019-03-13T04:53:01.031Z,93.10
2019-03-13T04:55:32.575Z,92.90
2019-03-13T04:58:00.440Z,92.80
2019-03-13T05:00:35.688Z,92.70
2019-03-13T05:03:07.228Z,92.70
2019-03-13T05:05:45.427Z,92.60
2019-03-13T05:08:29.383Z,92.50
2019-03-13T05:10:58.479Z,92.50
2019-03-13T05:13:27.571Z,92.30
2019-03-13T05:15:56.461Z,92.20
2019-03-13T05:18:25.452Z,92.00
2019-03-13T05:20:54.345Z,91.80
2019-03-13T05:23:29.019Z,91.70
2019-03-13T05:25:58.945Z,91.60
2019-03-13T05:28:27.871Z,91.40
2019-03-13T05:30:56.866Z,91.70
2019-03-13T05:33:26.685Z,91.20
2019-03-13T05:35:58.994Z,90.80
2019-03-13T05:38:27.968Z,90.70
2019-03-13T05:40:59.397Z,89.40
2019-03-13T05:43:32.796Z,88.00
2019-03-13T05:46:07.985Z,86.30
2019-03-13T05:48:32.118Z,87.30
2019-03-13T05:51:00.991Z,87.50
2019-03-13T05:53:30.905Z,86.40
2019-03-13T05:56:02.324Z,86.70
2019-03-13T05:58:31.245Z,86.40
2019-03-13T06:01:00.131Z,87.50
2019-03-13T06:03:29.026Z,86.50
2019-03-13T06:05:58.935Z,85.80
2019-03-13T06:08:31.274Z,85.80
2019-03-13T06:11:00.322Z,85.30
2019-03-13T06:13:34.004Z,84.60
2019-03-13T06:16:05.547Z,84.00
2019-03-13T06:18:34.451Z,84.60
2019-03-13T06:21:06.009Z,84.30
2019-03-13T06:23:38.577Z,85.20
2019-03-13T06:26:07.670Z,84.50
2019-03-13T06:28:39.225Z,84.70
2019-03-13T06:31:12.312Z,84.10
2019-03-13T06:33:42.693Z,84.60
2019-03-13T06:36:17.993Z,85.50
2019-03-13T06:38:47.990Z,84.90
2019-03-13T06:41:16.886Z,84.80
2019-03-13T06:43:45.785Z,85.00
2019-03-13T06:46:14.764Z,83.10
2019-03-13T06:48:44.675Z,83.10
2019-03-13T06:51:13.668Z,82.60
2019-03-13T06:53:42.561Z,82.40
2019-03-13T06:56:15.748Z,82.10
2019-03-13T06:58:46.188Z,81.80
2019-03-13T07:01:16.617Z,81.90
2019-03-13T07:03:53.996Z,82.20
2019-03-13T07:06:26.283Z,80.50
2019-03-13T07:08:59.861Z,80.10
2019-03-13T07:11:37.252Z,79.60
2019-03-13T07:14:27.131Z,79.60
2019-03-13T07:17:11.994Z,79.20
2019-03-13T07:19:45.290Z,79.10
2019-03-13T07:22:27.802Z,80.20
2019-03-13T07:24:58.258Z,80.50
2019-03-13T07:27:44.062Z,78.70
2019-03-13T07:30:14.650Z,78.00
2019-03-13T07:33:01.252Z,79.60
2019-03-13T07:35:50.547Z,79.00
2019-03-13T07:38:36.386Z,78.90
2019-03-13T07:41:07.879Z,78.90
2019-03-13T07:43:41.939Z,79.00
2019-03-13T07:46:17.854Z,80.00
2019-03-13T07:48:48.347Z,80.00
2019-03-13T07:51:24.918Z,78.90
2019-03-13T07:53:55.461Z,78.00
2019-03-13T07:56:45.481Z,78.30
2019-03-13T07:59:34.214Z,79.20
2019-03-13T08:02:04.680Z,78.30
2019-03-13T08:04:35.270Z,77.80
2019-03-13T08:07:11.795Z,78.70
2019-03-13T08:09:51.253Z,78.10
2019-03-13T08:12:39.496Z,77.60
2019-03-13T08:15:31.233Z,78.70
2019-03-13T08:18:17.824Z,77.60
2019-03-13T08:21:08.843Z,78.50
2019-03-13T08:23:55.255Z,77.70
2019-03-13T08:26:30.776Z,77.90
2019-03-13T08:29:05.522Z,77.80
2019-03-13T08:31:38.807Z,76.40
2019-03-13T08:34:25.355Z,77.40
2019-03-13T08:36:58.592Z,77.30
2019-03-13T08:39:29.123Z,77.30
2019-03-13T08:42:15.932Z,76.50
2019-03-13T08:44:47.483Z,76.10
2019-03-13T08:47:35.626Z,76.70
2019-03-13T08:50:28.101Z,75.00
2019-03-13T08:53:07.606Z,75.10
2019-03-13T08:55:38.135Z,75.20
2019-03-13T08:58:11.641Z,75.00
2019-03-13T09:00:59.790Z,75.00
2019-03-13T09:03:38.092Z,74.40
2019-03-13T09:06:11.279Z,73.50
2019-03-13T09:08:47.543Z,74.50
2019-03-13T09:11:24.702Z,76.30
2019-03-13T09:14:11.533Z,75.40
2019-03-13T09:16:53.733Z,75.40
2019-03-13T09:19:41.056Z,74.60
2019-03-13T09:22:17.318Z,74.40
2019-03-13T09:25:11.327Z,76.70
2019-03-13T09:27:40.108Z,73.50
2019-03-13T09:30:12.660Z,75.20
2019-03-13T09:32:45.953Z,77.20
2019-03-13T09:35:24.269Z,74.60
2019-03-13T09:37:56.227Z,74.70
2019-03-13T09:40:44.779Z,74.70
2019-03-13T09:43:23.321Z,74.90
2019-03-13T09:45:58.480Z,75.80
2019-03-13T09:48:28.958Z,77.10
2019-03-13T09:51:04.870Z,75.20
2019-03-13T09:53:44.659Z,76.40
2019-03-13T09:56:23.183Z,76.80
2019-03-13T09:58:56.218Z,75.10
2019-03-13T10:01:29.357Z,76.30
2019-03-13T10:04:05.779Z,75.20
2019-03-13T10:06:41.742Z,74.30
2019-03-13T10:09:29.402Z,74.80
2019-03-13T10:11:59.930Z,72.00
2019-03-13T10:14:46.947Z,71.30
2019-03-13T10:17:24.131Z,70.10
2019-03-13T10:19:54.659Z,70.80
2019-03-13T10:22:42.670Z,68.70
2019-03-13T10:25:13.227Z,70.40
2019-03-13T10:27:46.464Z,70.90
2019-03-13T10:30:33.433Z,70.80
2019-03-13T10:33:03.960Z,70.60
2019-03-13T10:35:34.489Z,70.60
2019-03-13T10:38:15.003Z,71.10
2019-03-13T10:40:59.407Z,70.90
2019-03-13T10:43:48.070Z,70.40
2019-03-13T10:46:27.396Z,70.70
2019-03-13T10:49:15.976Z,70.20
2019-03-13T10:51:49.034Z,69.90
2019-03-13T10:54:21.615Z,70.50
2019-03-13T10:57:01.150Z,70.30
2019-03-13T10:59:49.299Z,69.90
2019-03-13T11:02:36.203Z,69.80
2019-03-13T11:05:14.925Z,70.60
2019-03-13T11:07:51.191Z,70.70
2019-03-13T11:10:37.895Z,70.70
2019-03-13T11:13:14.465Z,70.70
2019-03-13T11:15:53.797Z,71.00
2019-03-13T11:18:30.064Z,70.10
2019-03-13T11:21:19.921Z,70.20
2019-03-13T11:24:03.694Z,69.90
2019-03-13T11:26:49.368Z,68.60
2019-03-13T11:29:20.842Z,69.50
2019-03-13T11:31:57.289Z,68.70
2019-03-13T11:34:30.578Z,68.70
2019-03-13T11:37:17.184Z,68.70
2019-03-13T11:39:50.685Z,67.00
2019-03-13T11:42:30.628Z,65.60
2019-03-13T11:45:20.516Z,66.70
2019-03-13T11:47:51.041Z,66.80
2019-03-13T11:50:32.447Z,66.00
2019-03-13T11:53:19.953Z,67.10
2019-03-13T11:56:00.825Z,66.80
2019-03-13T11:58:31.252Z,65.70
2019-03-13T12:01:20.225Z,65.10
2019-03-13T12:03:56.980Z,65.80
2019-03-13T12:06:31.475Z,64.90
2019-03-13T12:09:14.014Z,65.30
2019-03-13T12:11:53.352Z,65.80
2019-03-13T12:14:32.989Z,66.40
2019-03-13T12:17:07.421Z,65.70
2019-03-13T12:19:39.065Z,64.80
2019-03-13T12:22:24.648Z,65.20
2019-03-13T12:25:11.254Z,65.30
2019-03-13T12:27:49.284Z,66.30
2019-03-13T12:30:25.824Z,65.70
2019-03-13T12:33:00.191Z,64.60
2019-03-13T12:35:48.588Z,64.90
2019-03-13T12:38:35.913Z,65.90
2019-03-13T12:41:13.915Z,64.30
2019-03-13T12:43:51.421Z,65.10
2019-03-13T12:46:40.471Z,66.00
2019-03-13T12:49:10.998Z,64.90
2019-03-13T12:51:57.707Z,63.30
2019-03-13T12:54:28.234Z,63.80
2019-03-13T12:57:01.936Z,64.30
2019-03-13T12:59:50.021Z,63.60
2019-03-13T13:02:38.849Z,63.20
2019-03-13T13:05:14.445Z,63.40
2019-03-13T13:07:47.467Z,62.60
2019-03-13T13:10:34.074Z,61.60
2019-03-13T13:13:19.759Z,62.60
2019-03-13T13:16:02.984Z,63.10
2019-03-13T13:18:39.348Z,62.30
2019-03-13T13:21:08.240Z,61.90
2019-03-13T13:23:37.230Z,62.20
2019-03-13T13:26:07.145Z,62.20
2019-03-13T13:28:35.970Z,62.90
2019-03-13T13:31:04.924Z,61.30
2019-03-13T13:33:33.950Z,62.10
2019-03-13T13:36:02.861Z,60.00
2019-03-13T13:38:31.800Z,61.80
2019-03-13T13:41:00.790Z,59.80
2019-03-13T13:43:29.792Z,59.40
2019-03-13T13:46:10.247Z,59.90
2019-03-13T13:48:39.138Z,59.80
2019-03-13T13:51:08.127Z,60.30
2019-03-13T13:53:37.122Z,59.20
2019-03-13T13:56:06.010Z,60.20
2019-03-13T13:58:35.001Z,59.60
2019-03-13T14:01:04.000Z,59.40
2019-03-13T14:03:35.464Z,59.80
2019-03-13T14:06:07.770Z,59.90
2019-03-13T14:11:05.188Z,60.20
2019-03-13T14:13:35.103Z,60.20
2019-03-13T14:16:04.094Z,60.70
2019-03-13T14:18:32.987Z,60.70
2019-03-13T14:21:03.127Z,61.20
2019-03-13T14:23:32.103Z,61.60
2019-03-13T14:26:00.986Z,61.80
2019-03-13T14:28:29.898Z,61.70
2019-03-13T14:30:59.996Z,62.30
2019-03-13T14:33:29.907Z,62.30
2019-03-13T14:36:02.391Z,62.70
2019-03-13T14:38:31.379Z,62.50
2019-03-13T14:41:00.200Z,63.40
2019-03-13T14:43:29.056Z,63.80
2019-03-13T14:45:58.049Z,64.50
2019-03-13T14:48:29.346Z,64.50
2019-03-13T14:51:01.828Z,65.80
2019-03-13T14:53:31.595Z,67.10
2019-03-13T14:56:01.491Z,68.00
2019-03-13T14:58:32.939Z,70.10
2019-03-13T15:01:01.831Z,70.40
2019-03-13T15:03:30.623Z,72.70
2019-03-13T15:06:01.378Z,74.50
2019-03-13T15:08:30.153Z,76.20
2019-03-13T15:11:00.054Z,78.70
2019-03-13T15:13:32.980Z,80.50
2019-03-13T15:16:01.739Z,81.90
2019-03-13T15:18:33.819Z,83.20
2019-03-13T15:21:02.782Z,84.40
2019-03-13T15:23:31.526Z,84.80
2019-03-13T15:26:00.462Z,85.20
2019-03-13T15:28:29.347Z,85.60
2019-03-13T15:30:58.345Z,86.20
2019-03-13T15:33:32.457Z,86.50
2019-03-13T15:36:03.108Z,86.80
2019-03-13T15:38:31.973Z,86.90
2019-03-13T15:41:00.967Z,88.00
2019-03-13T15:43:29.861Z,87.90
2019-03-13T15:45:58.653Z,88.40
2019-03-13T15:48:27.634Z,88.80
2019-03-13T15:50:56.529Z,89.40
2019-03-13T15:53:25.415Z,89.40
2019-03-13T15:55:56.966Z,89.80
2019-03-13T15:58:29.953Z,90.00
2019-03-13T16:00:58.848Z,90.00
2019-03-13T16:03:27.734Z,90.30
2019-03-13T16:05:56.730Z,90.50
2019-03-13T16:08:25.615Z,90.80
2019-03-13T16:10:54.607Z,90.90
2019-03-13T16:13:23.520Z,90.90
2019-03-13T16:15:52.387Z,91.10
2019-03-13T16:18:23.892Z,91.10
2019-03-13T16:20:55.400Z,91.30
2019-03-13T16:23:24.282Z,91.50
2019-03-13T16:25:53.174Z,91.60
2019-03-13T16:28:22.164Z,91.70
2019-03-13T16:30:53.514Z,91.80
2019-03-13T16:33:25.872Z,91.80
2019-03-13T16:35:58.101Z,91.90
2019-03-13T16:38:28.213Z,91.90
2019-03-13T16:40:57.161Z,91.90
2019-03-13T16:43:26.048Z,91.80
2019-03-13T16:45:58.427Z,92.10
2019-03-13T16:48:27.414Z,91.90
2019-03-13T16:50:59.991Z,92.20
2019-03-13T16:53:32.418Z,92.00
2019-03-13T16:56:01.358Z,92.10
2019-03-13T16:58:30.248Z,92.10
2019-03-13T17:00:59.137Z,92.10
2019-03-13T17:03:29.052Z,92.10
2019-03-13T17:05:58.041Z,92.30
2019-03-13T17:08:26.932Z,92.40
2019-03-13T17:10:55.824Z,92.40
2019-03-13T17:13:26.726Z,92.50
2019-03-13T17:15:59.161Z,92.40
2019-03-13T17:18:31.579Z,92.60
2019-03-13T17:21:04.611Z,92.90
2019-03-13T17:23:33.483Z,93.00
2019-03-13T17:26:03.496Z,93.10
2019-03-13T17:28:35.150Z,93.20
2019-03-13T17:31:04.043Z,93.30
2019-03-13T17:33:33.036Z,93.20
2019-03-13T17:36:04.586Z,93.30
2019-03-13T17:38:36.260Z,93.30
2019-03-13T17:41:05.548Z,93.30
2019-03-13T17:43:39.440Z,93.10
2019-03-13T17:46:07.450Z,93.30
2019-03-13T17:48:36.510Z,93.40
2019-03-13T17:51:05.504Z,93.30
2019-03-13T17:53:35.724Z,93.30
2019-03-13T17:56:04.617Z,93.40
2019-03-13T17:58:33.709Z,93.20
2019-03-13T18:01:02.805Z,93.10
2019-03-13T18:03:31.797Z,93.00
2019-03-13T18:06:02.610Z,93.20
2019-03-13T18:08:31.627Z,93.20
2019-03-13T18:11:00.520Z,93.30
2019-03-13T18:13:29.514Z,93.20
2019-03-13T18:15:58.429Z,93.20
2019-03-13T18:18:27.289Z,93.20
2019-03-13T18:20:56.175Z,93.30
2019-03-13T18:23:25.270Z,93.40
2019-03-13T18:25:55.708Z,93.30
2019-03-13T18:28:24.894Z,93.30
2019-03-13T18:30:53.889Z,93.20
2019-03-13T18:33:26.570Z,93.80
2019-03-13T18:35:58.324Z,93.40
2019-03-13T18:38:27.212Z,93.60
2019-03-13T18:40:57.129Z,93.40
2019-03-13T18:43:26.016Z,93.30
2019-03-13T18:46:00.539Z,93.40
2019-03-13T18:48:29.432Z,93.70
2019-03-13T18:50:58.422Z,93.50
2019-03-13T18:53:33.763Z,93.50
2019-03-13T18:56:06.264Z,93.70
2019-03-13T18:58:35.338Z,93.50
2019-03-13T19:01:04.335Z,93.50
2019-03-13T19:03:33.212Z,93.60
2019-03-13T19:06:02.011Z,93.50
2019-03-13T19:08:31.098Z,93.50
2019-03-13T19:11:02.009Z,93.50
2019-03-13T19:13:31.135Z,93.50
2019-03-13T19:16:00.165Z,93.50
2019-03-13T19:18:29.116Z,93.60
2019-03-13T19:20:58.705Z,93.50
2019-03-13T19:23:27.888Z,93.60
2019-03-13T19:25:56.909Z,93.60
2019-03-13T19:28:25.803Z,93.70
2019-03-13T19:30:54.898Z,93.70
2019-03-13T19:33:26.668Z,93.60
2019-03-13T19:35:58.408Z,93.60
2019-03-13T19:38:27.300Z,93.60
2019-03-13T19:40:56.517Z,93.60
2019-03-13T19:43:27.874Z,93.60
2019-03-13T19:45:57.246Z,93.60
2019-03-13T19:48:26.045Z,93.70
2019-03-13T19:50:56.597Z,93.60
2019-03-13T19:53:27.353Z,93.70
2019-03-13T19:55:56.286Z,93.80
2019-03-13T19:58:25.054Z,93.80
2019-03-13T20:00:53.970Z,93.80
2019-03-13T20:03:25.337Z,93.90
2019-03-13T20:05:54.213Z,93.90
2019-03-13T20:08:26.232Z,93.80
2019-03-13T20:10:57.957Z,93.90
2019-03-13T20:13:28.206Z,93.80
2019-03-13T20:15:57.372Z,94.10
2019-03-13T20:18:27.927Z,93.70
2019-03-13T20:20:56.815Z,93.80
2019-03-13T20:23:30.594Z,93.70
2019-03-13T20:26:01.552Z,93.70
2019-03-13T20:28:31.008Z,93.90
2019-03-13T20:31:00.222Z,93.80
2019-03-13T20:33:29.513Z,93.80
2019-03-13T20:35:59.570Z,93.60
2019-03-13T20:38:29.540Z,93.60
2019-03-13T20:41:01.423Z,93.60
2019-03-13T20:43:33.001Z,93.70
2019-03-13T20:46:01.903Z,93.70
2019-03-13T20:48:33.837Z,93.70
2019-03-13T20:51:03.514Z,93.80
2019-03-13T20:53:33.629Z,93.80
2019-03-13T20:56:02.794Z,93.80
2019-03-13T20:58:31.861Z,93.80
2019-03-13T21:01:01.209Z,93.70
2019-03-13T21:03:30.399Z,93.70
2019-03-13T21:06:00.956Z,93.70
2019-03-13T21:08:35.609Z,93.70
2019-03-13T21:11:02.943Z,93.70
2019-03-13T21:13:41.134Z,93.80
2019-03-13T21:16:10.043Z,93.90
2019-03-13T21:18:39.374Z,93.90
2019-03-13T21:21:08.462Z,93.90
2019-03-13T21:23:37.484Z,93.80
2019-03-13T21:26:06.410Z,93.80
2019-03-13T21:28:35.391Z,93.80
2019-03-13T21:31:04.382Z,93.90
2019-03-13T21:33:37.373Z,93.90
2019-03-13T21:36:08.989Z,93.90
2019-03-13T21:38:38.016Z,93.80
2019-03-13T21:41:11.388Z,93.90
2019-03-13T21:43:40.741Z,93.90
2019-03-13T21:46:09.752Z,94.00
2019-03-13T21:48:41.057Z,93.90
2019-03-13T21:51:10.850Z,93.80
2019-03-13T21:53:42.496Z,93.70
2019-03-13T21:56:14.233Z,93.80
2019-03-13T21:58:45.930Z,93.70
2019-03-13T22:01:19.706Z,93.80
2019-03-13T22:03:45.517Z,93.70
2019-03-13T22:06:27.702Z,93.80
2019-03-13T22:08:45.382Z,93.80
2019-03-13T22:11:14.418Z,93.70
2019-03-13T22:13:43.478Z,93.80
2019-03-13T22:16:16.251Z,93.70
2019-03-13T22:18:45.139Z,93.60
2019-03-13T22:21:14.336Z,93.70
2019-03-13T22:23:43.343Z,93.70
2019-03-13T22:26:12.222Z,93.80
2019-03-13T22:28:41.114Z,93.80
2019-03-13T22:31:10.140Z,93.70
2019-03-13T22:33:39.883Z,93.70
2019-03-13T22:36:12.486Z,93.70
2019-03-13T22:38:41.379Z,93.70
2019-03-13T22:41:10.270Z,93.70
2019-03-13T22:43:39.274Z,93.70
2019-03-13T22:46:08.973Z,93.80
2019-03-13T22:48:39.090Z,93.70
2019-03-13T22:51:10.450Z,93.80
2019-03-13T22:53:39.232Z,93.90
2019-03-13T22:56:10.683Z,93.90
2019-03-13T22:58:44.854Z,93.90
2019-03-13T23:01:15.423Z,93.90
2019-03-13T23:03:44.510Z,93.90
2019-03-13T23:06:22.697Z,93.80
2019-03-13T23:08:51.617Z,93.60
2019-03-13T23:11:20.499Z,93.90
2019-03-13T23:13:49.389Z,93.90
2019-03-13T23:16:18.482Z,94.00
2019-03-13T23:18:48.859Z,94.10
2019-03-13T23:21:18.617Z,94.10
2019-03-13T23:23:47.511Z,94.10
2019-03-13T23:26:16.401Z,94.10
2019-03-13T23:28:45.291Z,94.10
2019-03-13T23:31:14.182Z,94.00
2019-03-13T23:33:42.974Z,94.20
2019-03-13T23:36:11.860Z,94.20
2019-03-13T23:38:41.159Z,94.20
2019-03-13T23:41:11.069Z,94.10
2019-03-13T23:43:39.958Z,94.20
2019-03-13T23:46:08.850Z,94.10
2019-03-13T23:48:37.742Z,94.20
2019-03-13T23:51:06.732Z,94.20
2019-03-13T23:53:36.963Z,94.10
2019-03-13T23:56:05.844Z,94.20
2019-03-13T23:58:34.734Z,94.10
